x

Buoy F01 - West Penobscot Bay (44033) Wave Buoy

8:04 - Sun 25th Jun 2017 All times are EDT. -4 hours from GMT.

  • Sig Wave height 2.0ft
  • Peak Period 8s
  • Wind
    7mph, 7mph gusts
  • Sea Temp 55°f
  • Luft Temp 61°f
  • Sea Pressure 1010.8mb
  • Buoy F01 - West Penobscot Bay
  • Buoy F01 - West Penobscot Bay

More Historic Weather Station data

Upgrade to MSW Pro to gain access to the past 30 days of data for over 8000 Wavebouys and Weather Stations around the globe.

Join Pro

Comparision Forecast

View Surf forecast
   
So 06/25 8:04 2ft 8s 7 7 mph 1010.8mb 55f 61f
7:04 1.6ft 8s 4 7 mph 1010.3mb 56f 60f
6:04 2ft 8s 13 16 mph 1010mb 57f 61f
5:04 2ft 8s 7 9 mph 1010mb 58f 60f
4:04 1.6ft 8s 7 9 mph 1010.5mb 55f 58f
3:04 2ft 8s 11 13 mph 1010.9mb 55f 59f
2:04 2ft 6s 13 16 mph 1010.8mb 53f 58f
1:04 2.5ft 8s 13 18 mph 1010.8mb 55f 57f
12:04 2.5ft 8s 11 13 mph 1011mb 52f 57f
11:04 2.5ft 8s 9 11 mph 1011.5mb 52f 56f
10:04 2.5ft 8s 7 7 mph 1011.6mb 55f 58f
9:04 2.5ft 8s 2 4 mph 1011.6mb 56f 64f
8:04 2ft 8s 2 4 mph 1011.4mb 53f 63f
7:04 2ft 8s 2 4 mph 1010.8mb 55f 62f
6:04 2ft 8s 4 7 mph 1010.2mb 56f 60f
5:04 2ft 6s 7 7 mph 1009.4mb 55f 59f
4:04 2ft 8s 7 7 mph 1008.6mb 56f 58f
3:04 2.5ft 6s 9 9 mph 1008.1mb 52f 61f
2:04 2.5ft 6s 4 7 mph 1007.7mb 52f 61f
1:04 2.5ft 8s 4 7 mph 1007.2mb 51f 64f
Sa 06/24 11:04 2ft 6s 4 7 mph 1006.1mb 51f 56f
10:04 2ft 6s 7 7 mph 1005.4mb 52f 59f
9:04 2.5ft 6s 7 7 mph 1004.3mb 53f 59f
8:04 2.5ft 6s 7 7 mph 1003.5mb 54f -
7:04 2.5ft 8s 2 4 mph 1002.8mb 54f 71f
6:04 2.5ft 6s  -  2 mph 1002mb 55f 67f
5:04 3ft 6s 2 4 mph 1001.3mb 56f 64f
4:04 2.5ft 6s 7 7 mph 1000.4mb 57f 59f
Fr 06/23 10:04 1ft 6s 4 9 mph 1008.9mb 51f 54f
9:04 1ft 6s 7 9 mph 1008.6mb 52f 52f
8:04 1.3ft 5s 2 4 mph 1010.5mb 52f 56f
7:04 1.6ft 4s 4 4 mph 1009.4mb 53f 55f
6:04 1.3ft 5s 2 4 mph 1009.7mb 56f 55f
5:04 1.6ft 5s 4 4 mph 1009.4mb 53f 55f
4:04 1.3ft 5s 4 4 mph 1009.7mb 56f 56f
3:04 1.6ft 6s 2 4 mph 1009.9mb 56f 56f
2:04 1.6ft 5s 2 2 mph 1010.3mb 56f 56f
1:04 1.6ft 6s 7 9 mph 1010.8mb 56f 56f
12:04 1.6ft 6s 4 7 mph 1011.1mb 52f 55f
Do 06/22 10:04 1.6ft 6s 9 9 mph 1011mb 52f 58f
9:04 1.6ft 6s 11 11 mph 1011mb 52f 58f
8:04 1.6ft 6s 11 13 mph 1010.5mb 52f 60f
7:04 2ft 6s 13 16 mph 1009.9mb 53f 60f
6:04 2ft 6s 18 22 mph 1010mb 53f 60f
5:04 1.6ft 6s 18 20 mph 1010.4mb 54f 61f
4:04 2ft 5s 9 9 mph 1010.3mb 55f 58f
3:04 1.3ft 3s 16 18 mph 1010.5mb 57f 62f
2:04 2ft 6s 16 18 mph 1010.9mb 58f 62f
1:04 2ft 6s  -  mph - 57f -
12:04 2.5ft 6s  -  mph - 53f -
11:04 2.5ft 6s  -  mph - 51f -
9:04 2ft 6s 7 7 mph 1012.2mb 51f 61f
8:04 2ft 6s 4 7 mph 1012.4mb 51f 58f
7:04 2ft 6s 9 9 mph 1012.1mb 52f 58f
6:04 2ft 5s 7 9 mph 1011.7mb 53f 57f
5:04 2ft 8s 4 4 mph 1011.5mb 54f 58f
4:04 1.6ft 6s 4 7 mph 1011.3mb 55f 58f
3:04 1.6ft 5s 4 7 mph 1011.1mb 52f 58f
2:04 1.3ft 5s 7 9 mph 1011.1mb 51f 59f